Pagrindinis puslapis
METAR-TAF:

METAR-TAF

Oro uostai :

Baja Marė, Rumunija

platuma: 47-40N, ilguma: 023-35E, Aukštis: 218 m

Dabartinis oras

Ataskaita buvo paskelbta 20 minutes, ne 10:30 UTC
Vėjas 9 kt iš Rytų
Temperatūra 6°C
Drėgmė 17%
Slėgis 1022 hPa
Matomumas 10 km arba daugiau
Mažai debesys ne aukštis 5500 ft

METAR: LRBM 311030Z 08009KT 9999 FEW055 06/M17 Q1022

Laikas: 13:50 (10:50 UTC)

Prognozė

Ataskaita buvo paskelbta 2 valandos ir 50 minutes, ne 08:00 UTC
Prognozė galioja nuo 31 metu 09 UTC su 31 metu 18 UTC
Vėjas 12 kt iš Šiaurės/Šiaurės Vakarų
Matomumas 10 km arba daugiau
nėra debesų žemiau 1500 m ir nėra kamuolinių lietaus debesų
Laikinai
nuo 31 metu 09 UTC su 31 metu 14 UTC
Vėjas 15 kt iš Šiaurės/Šiaurės Rytų su gūsio iki 25 kt

TAF: LRBM 310800Z 3109/3118 34012KT CAVOK TEMPO 3109/3114 02015G25KT

Orai ataskaitas ir orų prognozės (METAR, TAF).

turimą stotys yra geltonos ir raudonos taškus žemėlapyje.

Perkelti pele per norėdami pamatyti stoties vardą.

Tada spustelėkite, norėdami matyti oro stebėjimo ir prognozės.

Norėdami pakeisti žemėlapį: spustelėkite ant žalios mygtukų su juodo kryžiaus žemyn,; žalią mygtuką su brūkšneliu, jei norite nutolinti; arba žalių rodyklių gretimoms žemėlapius.


METAR-TAF: